Time;durP1;ratioP1;P1;durP2;ratioP2;P2;SDS_P1;SDS_P2;PMS_P1;PMS_P2;Temp;Humidity;BMP_temperature;BMP_pressure;BME280_temperature;BME280_humidity;BME280_pressure;Samples;Min_cycle;Max_cycle;Signal;HPM_P1;HPM_P2
2022/11/27 00:01:23;;;;;;;6.18;4.60;;;8.70;63.60;;;;;;4990967;28;20030;-81
2022/11/27 00:03:49;;;;;;;5.50;4.78;;;8.70;63.60;;;;;;5001147;28;20038;-81
2022/11/27 00:06:18;;;;;;;7.93;4.88;;;8.70;63.80;;;;;;5002475;28;20030;-82
2022/11/27 00:08:45;;;;;;;6.82;4.85;;;8.70;63.70;;;;;;5019815;28;20048;-82
2022/11/27 00:11:19;;;;;;;7.28;4.63;;;8.70;63.60;;;;;;5013117;28;20037;-82
2022/11/27 00:13:46;;;;;;;6.45;4.90;;;8.70;63.70;;;;;;5036744;28;20029;-82
2022/11/27 00:16:13;;;;;;;7.13;5.28;;;8.70;63.50;;;;;;5018372;28;20472;-82
2022/11/27 00:18:39;;;;;;;7.10;5.03;;;8.60;63.50;;;;;;5038545;28;20040;-81
2022/11/27 00:21:09;;;;;;;6.50;4.88;;;8.70;63.70;;;;;;5041240;28;20033;-80
2022/11/27 00:23:35;;;;;;;7.45;4.78;;;8.70;63.60;;;;;;5036805;28;20033;-81
2022/11/27 00:26:02;;;;;;;5.90;4.50;;;8.70;63.70;;;;;;5022045;28;20722;-80
2022/11/27 00:28:29;;;;;;;6.50;4.50;;;8.60;63.60;;;;;;5038282;28;20570;-80
2022/11/27 00:31:00;;;;;;;7.65;5.03;;;8.70;63.80;;;;;;5037424;28;20034;-81
2022/11/27 00:33:26;;;;;;;7.45;4.82;;;8.70;63.80;;;;;;5036110;28;20048;-81
2022/11/27 00:35:52;;;;;;;6.28;4.60;;;8.60;63.70;;;;;;5036966;28;20114;-81
2022/11/27 00:38:19;;;;;;;6.35;4.43;;;8.60;63.70;;;;;;5020293;28;20029;-81
2022/11/27 00:40:46;;;;;;;5.90;4.50;;;8.60;63.80;;;;;;5020320;28;20107;-80
2022/11/27 00:43:12;;;;;;;7.15;4.55;;;8.60;63.60;;;;;;5038526;28;20120;-81
2022/11/27 00:45:38;;;;;;;7.43;4.68;;;8.60;63.70;;;;;;5036298;28;20029;-82
2022/11/27 00:48:04;;;;;;;7.57;5.07;;;8.60;63.70;;;;;;5020012;28;20087;-82
2022/11/27 00:50:31;;;;;;;6.28;4.53;;;8.60;63.70;;;;;;5054826;28;20029;-82
2022/11/27 00:52:58;;;;;;;7.20;5.07;;;8.60;63.70;;;;;;5025125;28;20033;-81
2022/11/27 00:55:24;;;;;;;7.00;4.88;;;8.60;63.70;;;;;;5020736;28;20075;-81
2022/11/27 00:57:50;;;;;;;6.55;4.40;;;8.60;63.70;;;;;;5009451;28;20490;-81
2022/11/27 01:00:17;;;;;;;7.60;5.15;;;8.60;63.60;;;;;;5020168;28;20033;-81
2022/11/27 01:02:43;;;;;;;7.03;4.18;;;8.60;63.70;;;;;;5034637;28;20452;-81
2022/11/27 01:05:09;;;;;;;7.40;4.90;;;8.60;63.60;;;;;;5024174;28;20057;-81
2022/11/27 01:07:35;;;;;;;6.22;4.50;;;8.60;63.70;;;;;;5008974;28;20031;-82
2022/11/27 01:10:01;;;;;;;7.82;5.03;;;8.60;63.70;;;;;;5018554;28;20050;-82
2022/11/27 01:12:26;;;;;;;6.47;4.43;;;8.60;63.60;;;;;;5052280;28;20036;-82
2022/11/27 01:14:52;;;;;;;5.65;4.40;;;8.60;63.60;;;;;;5003937;28;20041;-81
2022/11/27 01:17:18;;;;;;;6.38;4.88;;;8.60;63.60;;;;;;5024259;28;20065;-81
2022/11/27 01:19:44;;;;;;;6.30;4.22;;;8.60;63.50;;;;;;5019383;28;20367;-81
2022/11/27 01:22:10;;;;;;;7.30;4.47;;;8.60;63.50;;;;;;5020876;28;20033;-82
2022/11/27 01:24:36;;;;;;;6.47;4.85;;;8.60;63.60;;;;;;5007258;28;20474;-81
2022/11/27 01:27:02;;;;;;;8.50;4.68;;;8.60;63.70;;;;;;5051834;28;20051;-82
2022/11/27 01:29:28;;;;;;;6.57;4.03;;;8.50;63.50;;;;;;5052385;28;20029;-80
2022/11/27 01:31:54;;;;;;;6.65;4.40;;;8.60;63.60;;;;;;5036814;28;20039;-81
2022/11/27 01:34:19;;;;;;;7.05;4.80;;;8.50;63.60;;;;;;5038044;28;20024;-81
2022/11/27 01:36:45;;;;;;;4.85;3.80;;;8.60;63.70;;;;;;5019387;28;20045;-81
2022/11/27 01:39:15;;;;;;;6.45;4.70;;;8.60;63.60;;;;;;5037574;28;20092;-80
2022/11/27 01:41:42;;;;;;;7.78;4.53;;;8.50;63.70;;;;;;5052521;28;20041;-81
2022/11/27 01:44:23;;;;;;;6.50;4.38;;;8.60;63.90;;;;;;5019226;28;20531;-81
2022/11/27 01:47:10;;;;;;;6.85;4.53;;;8.50;63.70;;;;;;5036569;28;20037;-82
2022/11/27 01:49:44;;;;;;;5.70;4.47;;;8.50;63.80;;;;;;5035410;28;20396;-80
2022/11/27 01:52:15;;;;;;;7.00;4.50;;;8.60;63.80;;;;;;5036182;28;20029;-80
2022/11/27 01:54:53;;;;;;;5.75;4.38;;;8.50;63.80;;;;;;5035760;28;20471;-81
2022/11/27 01:57:37;;;;;;;5.18;3.92;;;8.50;63.80;;;;;;5035962;28;20028;-81
2022/11/27 02:00:08;;;;;;;5.95;4.03;;;8.50;63.80;;;;;;5023723;28;20034;-80
2022/11/27 02:02:39;;;;;;;7.15;4.28;;;8.50;63.90;;;;;;5051305;28;20036;-80
2022/11/27 02:05:05;;;;;;;5.25;4.43;;;8.50;63.80;;;;;;5018279;28;20113;-80
2022/11/27 02:07:31;;;;;;;5.00;3.80;;;8.50;63.90;;;;;;5018628;28;20033;-79
2022/11/27 02:09:57;;;;;;;5.75;3.80;;;8.50;63.90;;;;;;5035520;28;20059;-79
2022/11/27 02:12:51;;;;;;;6.63;4.53;;;8.50;64.50;;;;;;5017133;28;20129;-79
2022/11/27 02:15:32;;;;;;;6.95;4.53;;;8.50;63.90;;;;;;5034968;28;20538;-80
2022/11/27 02:18:01;;;;;;;5.47;4.10;;;8.50;63.90;;;;;;5034648;28;20060;-79
2022/11/27 02:20:35;;;;;;;5.95;4.30;;;8.50;64.00;;;;;;5036510;28;20028;-80
2022/11/27 02:23:32;;;;;;;8.00;4.50;;;8.50;63.90;;;;;;5020183;28;20034;-80
2022/11/27 02:26:13;;;;;;;7.10;4.03;;;8.50;64.00;;;;;;5050469;28;20036;-79
2022/11/27 02:29:08;;;;;;;5.95;4.13;;;8.50;64.00;;;;;;5035817;28;20033;-79
2022/11/27 02:31:46;;;;;;;7.13;4.28;;;8.50;64.10;;;;;;5031902;28;20041;-81
2022/11/27 02:34:27;;;;;;;5.45;4.10;;;8.50;64.30;;;;;;5034880;28;20072;-80
2022/11/27 02:37:01;;;;;;;6.93;4.28;;;8.50;64.30;;;;;;5018992;28;20061;-80
2022/11/27 02:39:44;;;;;;;5.95;4.00;;;8.50;64.30;;;;;;5052345;28;20032;-80
2022/11/27 02:42:18;;;;;;;6.75;4.40;;;8.50;64.30;;;;;;5052871;28;20029;-80
2022/11/27 02:44:50;;;;;;;5.88;3.75;;;8.50;64.30;;;;;;5038843;28;20048;-80
2022/11/27 02:47:17;;;;;;;6.85;4.25;;;8.50;64.30;;;;;;5034093;28;20033;-81
2022/11/27 02:49:44;;;;;;;5.07;3.90;;;8.50;64.10;;;;;;5035855;28;20044;-80
2022/11/27 02:52:12;;;;;;;6.13;3.78;;;8.50;64.10;;;;;;5037157;28;20492;-80
2022/11/27 02:54:40;;;;;;;8.57;4.30;;;8.50;64.00;;;;;;5001946;28;20116;-81
2022/11/27 02:57:08;;;;;;;6.22;3.97;;;8.50;64.00;;;;;;5036759;28;20036;-81
2022/11/27 02:59:36;;;;;;;5.13;3.53;;;8.50;64.10;;;;;;5034697;28;20037;-81
2022/11/27 03:02:10;;;;;;;4.38;3.33;;;8.50;64.10;;;;;;5016106;28;20110;-80
2022/11/27 03:04:45;;;;;;;6.55;3.58;;;8.50;63.90;;;;;;5049215;28;20091;-81
2022/11/27 03:07:23;;;;;;;4.88;3.22;;;8.50;63.90;;;;;;5034957;28;20029;-81
2022/11/27 03:09:52;;;;;;;5.50;3.25;;;8.50;63.90;;;;;;5035578;28;20037;-81
2022/11/27 03:12:19;;;;;;;4.95;3.75;;;8.50;63.90;;;;;;5034236;28;20029;-80
2022/11/27 03:14:46;;;;;;;4.63;3.35;;;8.50;63.90;;;;;;5033512;28;20044;-80
2022/11/27 03:17:42;;;;;;;6.32;3.90;;;8.50;63.80;;;;;;5035441;28;20687;-81
2022/11/27 03:20:20;;;;;;;4.82;3.70;;;8.50;63.80;;;;;;5051219;28;20489;-80
2022/11/27 03:22:45;;;;;;;4.95;3.15;;;8.50;63.80;;;;;;5034630;28;20038;-79
2022/11/27 03:25:12;;;;;;;22.23;3.72;;;8.50;63.90;;;;;;5018364;28;20029;-79
2022/11/27 03:27:51;;;;;;;5.22;3.38;;;8.50;63.80;;;;;;5034882;28;20131;-80
2022/11/27 03:30:17;;;;;;;4.90;3.53;;;8.50;63.90;;;;;;5033864;28;20767;-80
2022/11/27 03:32:43;;;;;;;5.22;3.45;;;8.50;63.90;;;;;;5035823;28;20048;-80
2022/11/27 03:35:12;;;;;;;6.15;3.70;;;8.50;63.70;;;;;;5034977;28;20053;-80
2022/11/27 03:37:38;;;;;;;4.18;3.40;;;8.50;63.70;;;;;;5035572;28;20029;-80
2022/11/27 03:40:06;;;;;;;5.28;3.78;;;8.50;63.90;;;;;;5036142;28;20116;-81
2022/11/27 03:42:59;;;;;;;4.28;2.95;;;8.50;63.90;;;;;;5021738;28;20493;-81
2022/11/27 03:45:35;;;;;;;3.90;3.50;;;8.50;63.90;;;;;;5035486;28;20025;-80
2022/11/27 03:48:27;;;;;;;;;;;8.50;63.70;;;;;;5036004;28;20568;-81
2022/11/27 03:51:12;;;;;;;5.03;3.72;;;8.50;63.70;;;;;;5033451;28;20062;-81
2022/11/27 03:53:52;;;;;;;4.88;3.55;;;8.50;63.70;;;;;;5034854;28;20033;-81
2022/11/27 03:56:50;;;;;;;4.53;3.60;;;8.50;63.80;;;;;;5037789;28;20052;-81
2022/11/27 03:59:27;;;;;;;5.25;3.47;;;8.50;63.80;;;;;;5034544;28;20075;-82
2022/11/27 04:01:53;;;;;;;4.07;2.95;;;8.40;63.70;;;;;;5035417;28;20079;-81
2022/11/27 04:04:19;;;;;;;5.47;3.30;;;8.40;63.70;;;;;;5039498;28;20032;-81
2022/11/27 04:06:45;;;;;;;5.32;3.65;;;8.40;63.90;;;;;;5035773;28;20473;-81
2022/11/27 04:09:11;;;;;;;4.40;3.20;;;8.40;63.80;;;;;;5036000;28;20041;-81
2022/11/27 04:11:37;;;;;;;5.20;3.58;;;8.50;63.80;;;;;;5034570;28;20037;-81
2022/11/27 04:14:03;;;;;;;6.72;3.75;;;8.40;63.70;;;;;;5034396;28;20033;-82
2022/11/27 04:16:28;;;;;;;5.03;3.33;;;8.50;63.70;;;;;;5036795;28;20443;-81
2022/11/27 04:18:54;;;;;;;6.15;3.25;;;8.40;63.70;;;;;;5009972;28;20512;-81
2022/11/27 04:21:20;;;;;;;5.28;3.20;;;8.40;63.60;;;;;;5035069;28;20752;-81
2022/11/27 04:23:46;;;;;;;4.80;3.65;;;8.40;63.50;;;;;;5033997;28;20036;-81
2022/11/27 04:26:12;;;;;;;4.53;3.47;;;8.50;63.70;;;;;;5036424;28;20038;-81
2022/11/27 04:28:38;;;;;;;4.03;3.10;;;8.40;63.70;;;;;;5034480;28;20136;-81
2022/11/27 04:31:04;;;;;;;5.22;3.40;;;8.40;63.70;;;;;;5002123;28;20053;-81
2022/11/27 04:33:30;;;;;;;4.70;3.35;;;8.40;63.70;;;;;;5036471;28;20099;-81
2022/11/27 04:35:56;;;;;;;4.80;3.40;;;8.40;63.50;;;;;;5046949;28;20146;-80
2022/11/27 04:38:22;;;;;;;4.13;3.03;;;8.40;63.50;;;;;;5055529;28;20081;-80
2022/11/27 04:40:51;;;;;;;3.78;3.05;;;8.40;63.80;;;;;;5020530;28;20063;-81
2022/11/27 04:43:17;;;;;;;3.60;2.95;;;8.40;63.60;;;;;;5036965;28;20637;-80
2022/11/27 04:45:43;;;;;;;4.60;3.15;;;8.40;63.70;;;;;;5056904;28;20045;-80
2022/11/27 04:48:09;;;;;;;4.30;3.00;;;8.40;63.70;;;;;;5040341;28;20091;-80
2022/11/27 04:50:35;;;;;;;3.55;2.92;;;8.40;63.70;;;;;;5040660;28;20091;-80
2022/11/27 04:53:01;;;;;;;3.60;3.20;;;8.40;63.50;;;;;;5018686;28;20458;-80
2022/11/27 04:55:28;;;;;;;5.22;3.50;;;8.40;63.50;;;;;;5023341;28;20032;-81
2022/11/27 04:57:54;;;;;;;5.20;3.10;;;8.40;63.50;;;;;;5006363;28;20103;-81
2022/11/27 05:00:22;;;;;;;5.05;3.47;;;8.40;63.70;;;;;;5026142;28;21518;-81
2022/11/27 05:02:48;;;;;;;5.88;3.20;;;8.40;63.70;;;;;;4994584;28;20037;-77
2022/11/27 05:05:14;;;;;;;4.55;3.40;;;8.50;63.80;;;;;;5024210;28;20518;-79
2022/11/27 05:07:40;;;;;;;4.80;3.53;;;8.40;63.70;;;;;;5055811;28;20063;-79
2022/11/27 05:10:06;;;;;;;4.55;2.92;;;8.40;63.70;;;;;;5057313;28;20067;-78
2022/11/27 05:12:32;;;;;;;5.45;3.53;;;8.40;63.90;;;;;;5056087;28;20162;-79
2022/11/27 05:14:58;;;;;;;6.22;3.45;;;8.40;63.90;;;;;;5021874;28;20539;-80
2022/11/27 05:17:24;;;;;;;4.38;3.38;;;8.40;63.90;;;;;;5056588;28;20061;-76
2022/11/27 05:19:50;;;;;;;4.82;3.40;;;8.40;64.00;;;;;;5055940;28;20086;-79
2022/11/27 05:22:16;;;;;;;4.30;3.47;;;8.40;64.10;;;;;;5025171;28;20060;-78
2022/11/27 05:24:42;;;;;;;3.95;2.95;;;8.40;64.10;;;;;;5052970;28;20464;-78
2022/11/27 05:27:07;;;;;;;5.25;3.20;;;8.40;64.10;;;;;;5022470;28;20496;-78
2022/11/27 05:29:33;;;;;;;5.20;3.40;;;8.40;64.30;;;;;;5033525;28;20044;-78
2022/11/27 05:31:59;;;;;;;3.95;3.13;;;8.40;64.40;;;;;;5037507;28;20061;-78
2022/11/27 05:34:25;;;;;;;4.25;3.38;;;8.40;64.40;;;;;;5035234;28;20095;-78
2022/11/27 05:36:51;;;;;;;5.25;3.70;;;8.40;64.40;;;;;;5003018;28;20132;-78
2022/11/27 05:39:17;;;;;;;4.75;3.10;;;8.40;64.40;;;;;;5049858;28;20033;-79
2022/11/27 05:41:43;;;;;;;5.13;3.97;;;8.40;64.40;;;;;;5029694;28;20495;-78
2022/11/27 05:44:15;;;;;;;4.18;3.40;;;8.50;64.30;;;;;;5040674;28;20125;-79
2022/11/27 05:46:44;;;;;;;3.95;3.33;;;8.40;64.30;;;;;;5021217;28;20031;-76
2022/11/27 05:49:14;;;;;;;3.70;3.08;;;8.40;64.30;;;;;;5055941;28;20021;-76
2022/11/27 05:51:41;;;;;;;5.63;3.25;;;8.40;64.30;;;;;;5056278;28;20040;-81
2022/11/27 05:54:07;;;;;;;6.32;3.63;;;8.40;64.20;;;;;;5025038;28;20037;-79
2022/11/27 05:56:33;;;;;;;5.22;3.40;;;8.50;64.30;;;;;;5036667;28;20033;-79
2022/11/27 05:58:59;;;;;;;4.38;3.20;;;8.50;64.40;;;;;;5040040;28;20028;-79
2022/11/27 06:01:25;;;;;;;4.90;3.30;;;8.40;64.90;;;;;;5055446;28;20043;-79
2022/11/27 06:03:51;;;;;;;7.63;3.53;;;8.50;64.50;;;;;;5022519;28;20055;-77
2022/11/27 06:06:18;;;;;;;5.43;3.65;;;8.50;64.40;;;;;;5025132;28;20535;-76
2022/11/27 06:08:45;;;;;;;4.20;3.35;;;8.50;64.60;;;;;;5041262;28;20037;-76
2022/11/27 06:11:18;;;;;;;5.03;3.75;;;8.50;64.60;;;;;;5031517;28;20038;-78
2022/11/27 06:13:45;;;;;;;5.03;3.33;;;8.50;64.50;;;;;;5039579;28;20053;-77
2022/11/27 06:16:14;;;;;;;5.78;3.50;;;8.50;64.30;;;;;;5046067;28;20033;-77
2022/11/27 06:18:41;;;;;;;5.05;3.33;;;8.50;64.40;;;;;;5041932;28;20045;-77
2022/11/27 06:21:13;;;;;;;4.88;3.38;;;8.50;64.50;;;;;;5049961;28;20041;-78
2022/11/27 06:23:40;;;;;;;9.70;3.67;;;8.50;64.60;;;;;;5037860;28;20039;-78
2022/11/27 06:26:20;;;;;;;5.15;3.55;;;8.50;64.50;;;;;;5024007;28;20037;-77
2022/11/27 06:28:47;;;;;;;4.93;3.33;;;8.50;64.50;;;;;;5032894;28;20036;-80
2022/11/27 06:31:22;;;;;;;5.93;3.85;;;8.50;64.50;;;;;;4995786;28;20072;-78
2022/11/27 06:33:50;;;;;;;5.53;3.53;;;8.50;64.40;;;;;;5027473;28;20509;-79
2022/11/27 06:36:16;;;;;;;5.50;3.65;;;8.50;64.40;;;;;;5042265;28;20191;-83
2022/11/27 06:38:43;;;;;;;4.45;3.67;;;8.50;64.40;;;;;;5034017;28;20029;-78
2022/11/27 06:41:11;;;;;;;4.97;3.38;;;8.50;64.40;;;;;;5022602;28;20543;-77
2022/11/27 06:43:37;;;;;;;4.32;3.30;;;8.50;64.40;;;;;;5031388;28;20119;-75
2022/11/27 06:46:05;;;;;;;4.80;3.47;;;8.50;64.50;;;;;;5001202;28;20037;-79
2022/11/27 06:48:32;;;;;;;6.45;4.63;;;8.50;64.40;;;;;;4999583;28;20661;-77
2022/11/27 06:51:04;;;;;;;7.20;4.55;;;8.40;61.80;;;;;;5032736;28;20099;-78
2022/11/27 06:53:31;;;;;;;8.07;4.93;;;8.20;59.80;;;;;;5013330;28;20030;-77
2022/11/27 06:55:57;;;;;;;8.40;4.82;;;8.00;59.20;;;;;;5033452;28;20032;-76
2022/11/27 06:58:24;;;;;;;7.78;4.55;;;7.80;58.50;;;;;;5055347;28;20032;-77
2022/11/27 07:00:56;;;;;;;6.72;4.93;;;7.50;58.60;;;;;;5038720;28;20029;-77
2022/11/27 07:03:23;;;;;;;7.45;4.97;;;7.40;59.10;;;;;;5032309;28;20037;-77
2022/11/27 07:05:49;;;;;;;7.32;5.10;;;7.40;60.80;;;;;;5037047;28;20038;-76
2022/11/27 07:08:15;;;;;;;6.55;4.65;;;7.50;62.30;;;;;;5034551;28;20096;-77
2022/11/27 07:10:41;;;;;;;8.15;4.65;;;7.50;63.30;;;;;;5018917;28;20029;-75
2022/11/27 07:13:06;;;;;;;6.55;4.30;;;7.60;63.80;;;;;;5053756;28;20059;-76
2022/11/27 07:15:32;;;;;;;6.70;4.72;;;7.60;64.10;;;;;;5037732;28;20123;-76
2022/11/27 07:17:58;;;;;;;6.60;4.40;;;7.60;64.10;;;;;;5013470;28;20056;-76
2022/11/27 07:20:24;;;;;;;9.63;4.90;;;7.60;64.20;;;;;;5036098;28;20638;-77
2022/11/27 07:22:50;;;;;;;9.05;5.57;;;7.60;64.10;;;;;;5028511;28;20060;-75
2022/11/27 07:25:16;;;;;;;8.38;5.30;;;7.70;64.20;;;;;;5017431;28;20044;-76
2022/11/27 07:27:42;;;;;;;6.15;4.38;;;7.70;64.20;;;;;;5037978;28;20071;-76
2022/11/27 07:30:09;;;;;;;6.10;4.35;;;7.70;64.40;;;;;;5019002;28;20045;-76
2022/11/27 07:32:35;;;;;;;6.70;4.70;;;7.70;64.40;;;;;;4999415;28;20047;-75
2022/11/27 07:35:01;;;;;;;7.07;4.90;;;7.70;64.70;;;;;;5031869;28;20456;-75
2022/11/27 07:37:31;;;;;;;9.20;5.18;;;7.70;65.10;;;;;;5035315;28;20055;-76
2022/11/27 07:39:57;;;;;;;10.38;4.95;;;7.80;65.50;;;;;;5038642;28;20128;-76
2022/11/27 07:42:23;;;;;;;7.22;4.47;;;7.80;65.70;;;;;;5019653;28;20037;-76
2022/11/27 07:44:49;;;;;;;7.05;4.65;;;7.70;65.70;;;;;;5042077;28;20041;-76
2022/11/27 07:47:15;;;;;;;6.72;4.68;;;7.80;65.90;;;;;;5052026;28;20098;-76
2022/11/27 07:49:41;;;;;;;5.70;4.35;;;7.70;65.70;;;;;;5029508;28;20044;-76
2022/11/27 07:52:07;;;;;;;7.93;4.78;;;7.80;65.90;;;;;;5012922;28;20476;-76
2022/11/27 07:54:33;;;;;;;7.00;4.65;;;7.80;65.90;;;;;;5037299;28;20124;-76
2022/11/27 07:56:59;;;;;;;7.85;5.00;;;7.80;66.00;;;;;;5035606;28;20132;-78
2022/11/27 07:59:25;;;;;;;6.70;4.40;;;7.80;66.00;;;;;;5033396;28;20045;-77
2022/11/27 08:01:51;;;;;;;8.82;4.65;;;7.90;66.10;;;;;;5028385;28;20585;-77
2022/11/27 08:04:17;;;;;;;8.63;4.63;;;7.90;66.20;;;;;;5032430;28;20033;-77
2022/11/27 08:06:43;;;;;;;7.75;5.30;;;7.90;66.10;;;;;;5030891;28;20045;-77
2022/11/27 08:09:08;;;;;;;9.52;5.10;;;7.90;66.40;;;;;;5012023;28;20515;-76
2022/11/27 08:11:34;;;;;;;8.07;5.07;;;7.90;66.40;;;;;;5030796;28;20120;-77
2022/11/27 08:14:05;;;;;;;6.95;4.75;;;7.90;66.70;;;;;;5027280;28;20041;-77
2022/11/27 08:16:33;;;;;;;7.28;5.03;;;7.90;66.60;;;;;;5031047;28;20645;-76
2022/11/27 08:18:59;;;;;;;6.50;4.90;;;7.90;66.60;;;;;;5032938;28;20037;-76
2022/11/27 08:21:26;;;;;;;6.25;4.53;;;7.90;66.60;;;;;;5037996;28;20041;-74
2022/11/27 08:23:52;;;;;;;8.52;4.78;;;7.90;66.60;;;;;;5038643;28;20125;-74
2022/11/27 08:26:18;;;;;;;8.00;4.82;;;8.00;67.30;;;;;;5037608;28;20136;-74
2022/11/27 08:28:44;;;;;;;8.00;4.65;;;8.00;66.50;;;;;;5018558;28;20771;-74
2022/11/27 08:31:12;;;;;;;9.50;4.53;;;8.00;66.40;;;;;;5038355;28;20111;-74
2022/11/27 08:33:38;;;;;;;7.38;4.70;;;8.00;65.90;;;;;;5035959;28;20187;-75
2022/11/27 08:36:04;;;;;;;6.97;4.93;;;8.00;66.40;;;;;;5035276;28;20568;-75
2022/11/27 08:38:31;;;;;;;6.47;4.30;;;8.00;66.30;;;;;;5037575;28;20033;-76
2022/11/27 08:40:58;;;;;;;11.18;4.80;;;8.00;66.40;;;;;;5035443;28;20045;-76
2022/11/27 08:43:25;;;;;;;7.35;4.63;;;8.00;66.40;;;;;;5019080;28;20030;-75
2022/11/27 08:45:52;;;;;;;7.10;4.60;;;8.00;66.30;;;;;;5018088;28;20138;-76
2022/11/27 08:48:20;;;;;;;7.20;4.90;;;8.00;66.40;;;;;;5018379;28;20033;-74
2022/11/27 08:50:47;;;;;;;8.60;4.80;;;8.00;66.30;;;;;;5017317;28;20140;-75
2022/11/27 08:53:13;;;;;;;9.57;4.47;;;8.00;66.10;;;;;;5006253;28;20523;-75
2022/11/27 08:55:39;;;;;;;5.32;4.07;;;8.00;66.00;;;;;;5018522;28;20131;-74
2022/11/27 08:58:05;;;;;;;8.48;4.70;;;8.00;65.80;;;;;;5056842;28;20501;-74
2022/11/27 09:00:33;;;;;;;6.47;4.22;;;8.00;65.60;;;;;;5022049;28;20038;-76
2022/11/27 09:02:59;;;;;;;7.13;4.30;;;8.00;65.60;;;;;;5036014;28;20035;-76
2022/11/27 09:05:26;;;;;;;7.00;4.40;;;8.10;65.60;;;;;;5010761;28;20412;-77
2022/11/27 09:07:52;;;;;;;6.30;4.53;;;8.10;65.60;;;;;;5003367;28;20029;-77
2022/11/27 09:10:18;;;;;;;7.00;4.35;;;8.10;65.80;;;;;;5039438;28;20029;-78
2022/11/27 09:12:44;;;;;;;6.78;4.68;;;8.10;66.30;;;;;;4993470;28;20040;-78
2022/11/27 09:15:11;;;;;;;8.80;4.85;;;8.10;66.20;;;;;;5038234;28;20033;-79
2022/11/27 09:17:38;;;;;;;5.82;4.05;;;8.10;66.10;;;;;;5037697;28;20029;-79
2022/11/27 09:20:05;;;;;;;6.65;4.68;;;8.10;66.00;;;;;;5002627;28;20561;-79
2022/11/27 09:22:32;;;;;;;6.57;4.40;;;8.10;66.00;;;;;;5036046;28;20736;-78
2022/11/27 09:24:58;;;;;;;8.00;4.65;;;8.10;65.70;;;;;;5017637;28;20029;-77
2022/11/27 09:27:24;;;;;;;9.30;5.13;;;8.10;65.60;;;;;;5032627;28;20049;-78
2022/11/27 09:29:50;;;;;;;6.32;4.43;;;8.10;66.00;;;;;;5015485;28;20159;-76
2022/11/27 09:32:16;;;;;;;11.55;4.85;;;8.20;67.40;;;;;;5035474;28;20039;-77
2022/11/27 09:34:42;;;;;;;6.95;4.45;;;8.20;68.00;;;;;;5034054;28;20094;-78
2022/11/27 09:37:08;;;;;;;7.60;4.63;;;8.30;68.30;;;;;;5021867;28;20699;-77
2022/11/27 09:39:34;;;;;;;6.45;3.95;;;8.40;68.70;;;;;;5034685;28;20034;-77
2022/11/27 09:42:04;;;;;;;6.45;4.10;;;8.40;68.60;;;;;;5018035;28;20029;-77
2022/11/27 09:44:38;;;;;;;6.30;3.88;;;8.40;68.40;;;;;;5034822;28;20029;-78
2022/11/27 09:47:42;;;;;;;5.85;3.88;;;8.50;68.40;;;;;;5035124;28;20041;-77
2022/11/27 09:50:21;;;;;;;6.15;3.60;;;8.50;68.20;;;;;;5048142;28;20060;-77
2022/11/27 09:52:58;;;;;;;6.13;4.15;;;8.60;68.10;;;;;;5035708;28;20036;-79
2022/11/27 09:55:36;;;;;;;5.97;4.20;;;8.60;67.90;;;;;;5035483;28;20160;-76
2022/11/27 09:58:10;;;;;;;7.25;4.38;;;8.70;67.70;;;;;;5036368;28;20069;-77
2022/11/27 10:00:36;;;;;;;11.05;4.20;;;8.70;67.50;;;;;;5001913;28;20030;-79
2022/11/27 10:03:02;;;;;;;7.78;3.80;;;8.80;67.50;;;;;;5035004;28;20408;-77
2022/11/27 10:05:42;;;;;;;6.15;4.05;;;8.80;67.50;;;;;;5017200;28;20039;-77
2022/11/27 10:08:21;;;;;;;5.25;3.63;;;8.80;67.40;;;;;;5017371;28;20040;-78
2022/11/27 10:10:56;;;;;;;5.40;3.90;;;8.90;67.30;;;;;;5035244;28;20614;-76
2022/11/27 10:13:52;;;;;;;6.67;3.93;;;8.90;67.20;;;;;;5002270;28;20021;-77
2022/11/27 10:16:41;;;;;;;7.30;3.92;;;8.90;67.00;;;;;;5017410;28;20087;-77
2022/11/27 10:19:40;;;;;;;8.23;4.40;;;8.90;67.00;;;;;;5014357;28;20040;-77
2022/11/27 10:22:22;;;;;;;6.47;4.15;;;9.00;66.80;;;;;;5023206;28;20045;-77
2022/11/27 10:25:12;;;;;;;4.05;3.40;;;9.00;66.70;;;;;;5056241;28;20522;-77
2022/11/27 10:28:00;;;;;;;6.68;4.55;;;9.00;66.60;;;;;;5039187;28;20037;-76
2022/11/27 10:30:27;;;;;;;7.10;4.68;;;9.00;66.40;;;;;;5056470;28;20617;-78
2022/11/27 10:32:56;;;;;;;5.50;4.13;;;9.10;66.40;;;;;;5056352;28;20048;-78
2022/11/27 10:35:29;;;;;;;7.20;4.40;;;9.10;66.40;;;;;;5041796;28;20109;-77
2022/11/27 10:38:36;;;;;;;6.47;4.60;;;9.10;66.30;;;;;;5025710;28;20028;-78
2022/11/27 10:41:13;;;;;;;;;;;9.10;66.30;;;;;;4980233;28;20066;-78
2022/11/27 10:43:39;;;;;;;7.68;4.82;;;9.10;66.20;;;;;;4962669;28;19973;-78
2022/11/27 10:46:14;;;;;;;8.15;4.32;;;9.10;66.20;;;;;;4978932;28;20624;-78
2022/11/27 10:48:41;;;;;;;7.65;4.47;;;9.20;66.50;;;;;;4978285;28;20046;-79
2022/11/27 10:51:16;;;;;;;6.60;4.10;;;9.20;66.80;;;;;;4963685;28;20125;-79
2022/11/27 10:53:46;;;;;;;8.90;4.13;;;9.20;67.20;;;;;;4979383;28;20069;-79
2022/11/27 10:56:14;;;;;;;7.80;4.18;;;9.20;67.50;;;;;;4979278;28;20609;-79
2022/11/27 10:59:14;;;;;;;10.25;4.10;;;9.20;67.80;;;;;;4978388;28;20030;-78
2022/11/27 11:01:45;;;;;;;5.68;4.72;;;9.20;68.10;;;;;;4958327;28;20039;-81
2022/11/27 11:04:13;;;;;;;5.65;4.03;;;9.30;68.10;;;;;;4962496;28;20401;-79
2022/11/27 11:06:44;;;;;;;7.88;5.45;;;9.30;68.20;;;;;;4946960;28;20031;-79
2022/11/27 11:09:17;;;;;;;6.50;4.45;;;9.30;68.30;;;;;;4976046;28;20034;-78
2022/11/27 11:11:43;;;;;;;6.80;4.10;;;9.30;68.30;;;;;;5013316;28;20534;-79
2022/11/27 11:14:25;;;;;;;7.40;4.13;;;9.30;68.40;;;;;;5038613;28;20029;-78
2022/11/27 11:16:52;;;;;;;6.93;4.85;;;9.40;68.70;;;;;;5056396;28;20089;-75
2022/11/27 11:19:31;;;;;;;6.78;4.75;;;9.40;68.80;;;;;;5055553;28;20036;-77
2022/11/27 11:22:02;;;;;;;5.95;3.95;;;9.30;68.80;;;;;;5053071;28;20035;-78
2022/11/27 11:24:34;;;;;;;8.23;4.70;;;9.40;68.80;;;;;;5052512;28;20032;-77
2022/11/27 11:27:10;;;;;;;6.20;4.43;;;9.30;69.00;;;;;;5024276;28;20464;-78
2022/11/27 11:29:41;;;;;;;6.28;4.20;;;9.40;69.20;;;;;;5053483;28;20048;-78
2022/11/27 11:32:29;;;;;;;7.30;4.70;;;9.40;69.20;;;;;;5023395;28;20515;-78
2022/11/27 11:35:26;;;;;;;7.40;4.65;;;9.40;69.20;;;;;;5040481;28;20037;-81
2022/11/27 11:37:52;;;;;;;6.05;4.28;;;9.40;69.50;;;;;;5054716;28;20037;-78
2022/11/27 11:40:29;;;;;;;5.50;4.43;;;9.40;69.50;;;;;;5035773;28;20033;-80
2022/11/27 11:42:59;;;;;;;7.75;4.72;;;9.40;69.90;;;;;;5037161;28;20151;-79
2022/11/27 11:45:27;;;;;;;5.85;4.40;;;9.40;70.10;;;;;;5054391;28;20041;-77
2022/11/27 11:47:56;;;;;;;5.43;4.07;;;9.40;70.30;;;;;;5053492;28;20538;-76
2022/11/27 11:50:25;;;;;;;6.72;4.63;;;9.40;70.00;;;;;;5054114;28;20033;-77
2022/11/27 11:53:25;;;;;;;7.20;4.40;;;9.40;69.70;;;;;;5051306;28;20047;-76
2022/11/27 11:56:07;;;;;;;5.80;4.15;;;9.40;69.10;;;;;;5017764;28;20028;-77
2022/11/27 11:58:55;;;;;;;6.65;4.30;;;9.40;68.70;;;;;;5057949;28;20079;-76
2022/11/27 12:01:21;;;;;;;6.47;4.30;;;9.40;68.60;;;;;;5058225;28;20116;-77
2022/11/27 12:04:15;;;;;;;5.90;4.35;;;9.30;68.60;;;;;;5056482;28;20525;-77
2022/11/27 12:06:52;;;;;;;8.05;4.65;;;9.40;69.00;;;;;;5038886;28;20073;-77
2022/11/27 12:09:37;;;;;;;7.60;4.30;;;9.30;69.00;;;;;;5054641;28;20037;-77
2022/11/27 12:12:23;;;;;;;5.45;4.15;;;9.30;69.00;;;;;;5057946;28;20521;-77
2022/11/27 12:14:52;;;;;;;;;;;9.30;69.20;;;;;;5058306;28;20039;-78
2022/11/27 12:17:30;;;;;;;8.70;4.72;;;9.30;69.50;;;;;;5040739;28;19920;-79
2022/11/27 12:20:17;;;;;;;7.72;5.15;;;9.30;69.50;;;;;;5039420;28;20032;-78
2022/11/27 12:22:59;;;;;;;8.05;4.88;;;9.30;69.80;;;;;;5046855;28;20496;-79
2022/11/27 12:25:36;;;;;;;7.90;5.10;;;9.30;69.70;;;;;;5046783;28;20045;-79
2022/11/27 12:28:31;;;;;;;8.73;5.20;;;9.20;69.20;;;;;;5058152;28;20123;-80
2022/11/27 12:31:14;;;;;;;7.63;5.20;;;9.20;69.00;;;;;;5050442;28;20029;-77
2022/11/27 12:34:28;;;;;;;8.15;5.22;;;9.20;68.80;;;;;;5036443;28;20310;-76
2022/11/27 12:37:03;;;;;;;6.68;4.40;;;9.20;69.00;;;;;;4978570;28;20779;-76
2022/11/27 12:39:51;;;;;;;8.15;5.25;;;9.20;68.90;;;;;;4965098;28;20186;-77
2022/11/27 12:42:33;;;;;;;8.45;5.00;;;9.20;69.10;;;;;;4980468;28;20133;-75
2022/11/27 12:45:24;;;;;;;7.43;5.53;;;9.20;69.30;;;;;;4945751;28;20045;-75
2022/11/27 12:47:58;;;;;;;8.88;5.45;;;9.10;69.10;;;;;;4977733;28;20085;-76
2022/11/27 12:50:44;;;;;;;8.70;5.90;;;9.10;69.10;;;;;;4980441;28;20158;-76
2022/11/27 12:53:29;;;;;;;9.00;5.78;;;9.10;68.50;;;;;;4978791;28;20129;-77
2022/11/27 12:56:19;;;;;;;8.05;5.70;;;9.10;66.70;;;;;;4960504;28;20039;-76
2022/11/27 12:58:52;;;;;;;11.05;6.32;;;9.00;65.10;;;;;;4980010;28;20064;-78
2022/11/27 13:01:28;;;;;;;11.35;6.85;;;8.90;63.80;;;;;;4980442;28;20034;-80
2022/11/27 13:04:12;;;;;;;;;;;8.90;63.00;;;;;;4979820;28;20525;-79
2022/11/27 13:07:07;;;;;;;10.07;6.80;;;8.80;62.20;;;;;;4979799;28;19926;-79
2022/11/27 13:09:42;;;;;;;10.98;7.18;;;8.80;61.60;;;;;;4976653;28;20045;-83
2022/11/27 13:12:16;;;;;;;10.48;7.60;;;8.70;61.00;;;;;;4989573;28;20125;-78
2022/11/27 13:14:45;;;;;;;9.35;7.00;;;8.60;60.50;;;;;;5055630;28;20428;-78
2022/11/27 13:17:17;;;;;;;9.95;6.68;;;8.60;60.40;;;;;;5039071;28;20117;-79
2022/11/27 13:19:50;;;;;;;9.68;6.82;;;8.60;60.40;;;;;;4998717;28;20056;-80